createdAt,value
2022-08-19T00:06:12.696Z,3563
2022-08-19T00:16:12.693Z,3563
2022-08-19T00:26:12.680Z,3563
2022-08-19T00:36:12.642Z,3563
2022-08-19T00:46:12.613Z,3561
2022-08-19T00:56:12.590Z,3563
2022-08-19T01:06:12.569Z,3563
2022-08-19T01:16:12.561Z,3563
2022-08-19T01:26:12.575Z,3563
2022-08-19T01:36:12.524Z,3563
2022-08-19T01:46:12.498Z,3563
2022-08-19T01:56:12.486Z,3563
2022-08-19T02:06:12.458Z,3563
2022-08-19T02:16:12.440Z,3563
2022-08-19T02:26:12.466Z,3563
2022-08-19T02:36:12.409Z,3563
2022-08-19T02:46:12.385Z,3563
2022-08-19T02:56:12.397Z,3563
2022-08-19T03:06:12.356Z,3563
2022-08-19T03:16:12.361Z,3563
2022-08-19T03:26:16.483Z,3563
2022-08-19T03:36:12.289Z,3563
2022-08-19T03:46:12.306Z,3561
2022-08-19T03:56:12.292Z,3563
2022-08-19T04:06:12.227Z,3563
2022-08-19T04:16:12.252Z,3563
2022-08-19T04:26:12.232Z,3563
2022-08-19T04:36:12.176Z,3563
2022-08-19T04:46:12.183Z,3563
2022-08-19T04:56:12.181Z,3563
2022-08-19T05:06:12.110Z,3563
2022-08-19T05:16:12.136Z,3563
2022-08-19T05:26:12.110Z,3563
2022-08-19T05:36:12.069Z,3563
2022-08-19T05:46:12.086Z,3563
2022-08-19T06:06:11.998Z,3563
2022-08-19T06:16:12.024Z,3563
2022-08-19T06:26:12.020Z,3563
2022-08-19T06:36:11.942Z,3563
2022-08-19T06:46:11.964Z,3563
2022-08-19T06:56:11.941Z,3563
2022-08-19T07:06:32.560Z,3566
2022-08-19T07:16:12.983Z,3563
2022-08-19T07:26:11.879Z,3563
2022-08-19T07:36:11.830Z,3566
2022-08-19T07:56:11.796Z,3566
2022-08-19T08:06:11.774Z,3566
2022-08-19T08:16:14.368Z,3566
2022-08-19T08:26:11.739Z,3569
2022-08-19T08:36:11.716Z,3569
2022-08-19T08:46:12.235Z,3569
2022-08-19T08:56:11.674Z,3569
2022-08-19T09:06:11.781Z,3571
2022-08-19T09:16:11.673Z,3574
2022-08-19T09:26:11.713Z,3571
2022-08-19T09:36:11.589Z,3571
2022-08-19T09:46:11.613Z,3571
2022-08-19T09:56:11.563Z,3574
2022-08-19T10:06:14.945Z,3574
2022-08-19T10:16:11.547Z,3574
2022-08-19T10:26:11.487Z,3574
2022-08-19T10:36:11.472Z,3576
2022-08-19T10:46:14.042Z,3574
2022-08-19T10:56:11.430Z,3576
2022-08-19T11:06:11.410Z,3574
2022-08-19T11:16:11.420Z,3576
2022-08-19T11:26:11.373Z,3579
2022-08-19T11:36:11.340Z,3579
2022-08-19T11:46:11.356Z,3579
2022-08-19T11:56:11.308Z,3581
2022-08-19T12:06:11.277Z,3579
2022-08-19T12:16:11.284Z,3581
2022-08-19T12:26:11.262Z,3581
2022-08-19T12:36:11.222Z,3581
2022-08-19T12:46:11.477Z,3584
2022-08-19T12:56:12.413Z,3584
2022-08-19T13:06:11.138Z,3584
2022-08-19T13:16:11.118Z,3579
2022-08-19T13:26:11.139Z,3579
2022-08-19T13:36:11.090Z,3579
2022-08-19T13:46:11.067Z,3576
2022-08-19T13:56:11.087Z,3574
2022-08-19T14:06:11.023Z,3574
2022-08-19T14:16:10.999Z,3574
2022-08-19T14:26:11.021Z,3574
2022-08-19T14:46:10.941Z,3574
2022-08-19T14:56:10.949Z,3574
2022-08-19T15:06:12.791Z,3574
2022-08-19T15:16:17.880Z,3574
2022-08-19T15:26:16.000Z,3574
2022-08-19T15:36:10.912Z,3574
2022-08-19T15:46:10.832Z,3574
2022-08-19T15:56:10.837Z,3574
2022-08-19T16:06:10.774Z,3574
2022-08-19T16:16:10.745Z,3576
2022-08-19T16:26:10.762Z,3576
2022-08-19T16:36:10.721Z,3576
2022-08-19T16:46:10.690Z,3576
2022-08-19T16:56:10.709Z,3576
2022-08-19T17:06:18.507Z,3579
2022-08-19T17:16:10.658Z,3579
2022-08-19T17:26:17.933Z,3579
2022-08-19T17:36:10.582Z,3579
2022-08-19T17:46:11.176Z,3579
2022-08-19T17:56:10.571Z,3579
2022-08-19T18:06:10.528Z,3579
2022-08-19T18:16:10.539Z,3579
2022-08-19T18:26:10.508Z,3579
2022-08-19T18:36:10.458Z,3576
2022-08-19T18:46:10.475Z,3574
2022-08-19T18:56:10.465Z,3574
2022-08-19T19:06:10.391Z,3574
2022-08-19T19:16:10.403Z,3574
2022-08-19T19:26:10.388Z,3574
2022-08-19T19:36:10.335Z,3574
2022-08-19T19:46:10.345Z,3571
2022-08-19T19:56:10.366Z,3571
2022-08-19T20:06:10.281Z,3571
2022-08-19T20:16:10.282Z,3569
2022-08-19T20:26:14.822Z,3569
2022-08-19T20:36:10.209Z,3569
2022-08-19T20:46:10.239Z,3569
2022-08-19T20:56:10.207Z,3569
2022-08-19T21:06:10.160Z,3569
2022-08-19T21:16:10.174Z,3569
2022-08-19T21:26:10.142Z,3569
2022-08-19T21:36:10.108Z,3566
2022-08-19T21:46:10.114Z,3569
2022-08-19T21:56:10.055Z,3566
2022-08-19T22:06:10.036Z,3569
2022-08-19T22:16:10.057Z,3563
2022-08-19T22:26:09.997Z,3566
2022-08-19T22:36:09.969Z,3563
2022-08-19T22:46:16.990Z,3566
2022-08-19T22:56:14.455Z,3563
2022-08-19T23:06:09.910Z,3563
2022-08-19T23:16:09.931Z,3563
2022-08-19T23:26:11.707Z,3563
2022-08-19T23:36:09.863Z,3563
2022-08-19T23:46:10.671Z,3563
2022-08-19T23:56:09.821Z,3563
